sensor_id;sensor_type;location;lat;lon;timestamp;P1;durP1;ratioP1;P2;durP2;ratioP2
11743;SDS011;5929;51.906;7.674;2023-03-21T00:00:13;29.45;;;15.25;;
11743;SDS011;5929;51.906;7.674;2023-03-21T00:02:40;29.38;;;15.68;;
11743;SDS011;5929;51.906;7.674;2023-03-21T00:05:07;28.65;;;16.73;;
11743;SDS011;5929;51.906;7.674;2023-03-21T00:07:35;35.22;;;18.08;;
11743;SDS011;5929;51.906;7.674;2023-03-21T00:10:02;33.58;;;18.73;;
11743;SDS011;5929;51.906;7.674;2023-03-21T00:12:30;33.67;;;18.30;;
11743;SDS011;5929;51.906;7.674;2023-03-21T00:15:02;37.78;;;20.80;;
11743;SDS011;5929;51.906;7.674;2023-03-21T00:17:30;42.40;;;19.00;;
11743;SDS011;5929;51.906;7.674;2023-03-21T00:19:57;34.85;;;18.00;;
11743;SDS011;5929;51.906;7.674;2023-03-21T00:22:24;34.70;;;18.35;;
11743;SDS011;5929;51.906;7.674;2023-03-21T00:24:55;31.95;;;17.55;;
11743;SDS011;5929;51.906;7.674;2023-03-21T00:27:21;37.85;;;18.85;;
11743;SDS011;5929;51.906;7.674;2023-03-21T00:29:48;42.33;;;18.63;;
11743;SDS011;5929;51.906;7.674;2023-03-21T00:32:15;35.00;;;19.00;;
11743;SDS011;5929;51.906;7.674;2023-03-21T00:34:42;37.67;;;19.05;;
11743;SDS011;5929;51.906;7.674;2023-03-21T00:37:09;37.60;;;20.45;;
11743;SDS011;5929;51.906;7.674;2023-03-21T00:39:38;33.72;;;20.05;;
11743;SDS011;5929;51.906;7.674;2023-03-21T00:42:06;35.60;;;20.23;;
11743;SDS011;5929;51.906;7.674;2023-03-21T00:44:34;37.47;;;20.58;;
11743;SDS011;5929;51.906;7.674;2023-03-21T00:47:01;37.30;;;19.92;;
11743;SDS011;5929;51.906;7.674;2023-03-21T00:49:29;38.10;;;19.45;;
11743;SDS011;5929;51.906;7.674;2023-03-21T00:51:57;45.45;;;20.52;;
11743;SDS011;5929;51.906;7.674;2023-03-21T00:54:24;44.55;;;20.88;;
11743;SDS011;5929;51.906;7.674;2023-03-21T00:56:52;36.05;;;19.55;;
11743;SDS011;5929;51.906;7.674;2023-03-21T00:59:20;41.10;;;20.10;;
11743;SDS011;5929;51.906;7.674;2023-03-21T01:01:47;37.80;;;20.08;;
11743;SDS011;5929;51.906;7.674;2023-03-21T01:04:17;37.40;;;21.10;;
11743;SDS011;5929;51.906;7.674;2023-03-21T01:06:45;37.75;;;20.65;;
11743;SDS011;5929;51.906;7.674;2023-03-21T01:09:16;41.50;;;20.80;;
11743;SDS011;5929;51.906;7.674;2023-03-21T01:11:44;36.40;;;21.45;;
11743;SDS011;5929;51.906;7.674;2023-03-21T01:14:12;35.08;;;20.70;;
11743;SDS011;5929;51.906;7.674;2023-03-21T01:16:42;36.58;;;21.35;;
11743;SDS011;5929;51.906;7.674;2023-03-21T01:19:10;35.95;;;21.85;;
11743;SDS011;5929;51.906;7.674;2023-03-21T01:21:39;43.25;;;23.33;;
11743;SDS011;5929;51.906;7.674;2023-03-21T01:24:06;38.05;;;21.75;;
11743;SDS011;5929;51.906;7.674;2023-03-21T01:26:33;46.60;;;23.83;;
11743;SDS011;5929;51.906;7.674;2023-03-21T01:29:02;40.45;;;21.98;;
11743;SDS011;5929;51.906;7.674;2023-03-21T01:31:29;38.58;;;23.65;;
11743;SDS011;5929;51.906;7.674;2023-03-21T01:33:57;39.47;;;23.10;;
11743;SDS011;5929;51.906;7.674;2023-03-21T01:36:24;42.50;;;22.60;;
11743;SDS011;5929;51.906;7.674;2023-03-21T01:38:52;40.97;;;23.45;;
11743;SDS011;5929;51.906;7.674;2023-03-21T01:41:20;40.42;;;23.38;;
11743;SDS011;5929;51.906;7.674;2023-03-21T01:43:51;43.75;;;24.35;;
11743;SDS011;5929;51.906;7.674;2023-03-21T01:46:26;44.60;;;22.95;;
11743;SDS011;5929;51.906;7.674;2023-03-21T01:49:02;48.67;;;25.17;;
11743;SDS011;5929;51.906;7.674;2023-03-21T01:51:33;39.17;;;24.33;;
11743;SDS011;5929;51.906;7.674;2023-03-21T01:54:03;46.53;;;23.25;;
11743;SDS011;5929;51.906;7.674;2023-03-21T01:56:32;37.28;;;23.20;;
11743;SDS011;5929;51.906;7.674;2023-03-21T01:59:04;43.78;;;23.52;;
11743;SDS011;5929;51.906;7.674;2023-03-21T02:01:33;44.90;;;23.60;;
11743;SDS011;5929;51.906;7.674;2023-03-21T02:04:03;39.83;;;22.08;;
11743;SDS011;5929;51.906;7.674;2023-03-21T02:06:34;42.90;;;22.02;;
11743;SDS011;5929;51.906;7.674;2023-03-21T02:09:06;37.83;;;20.88;;
11743;SDS011;5929;51.906;7.674;2023-03-21T02:11:37;45.58;;;21.60;;
11743;SDS011;5929;51.906;7.674;2023-03-21T02:14:04;35.45;;;20.98;;
11743;SDS011;5929;51.906;7.674;2023-03-21T02:16:38;33.30;;;20.25;;
11743;SDS011;5929;51.906;7.674;2023-03-21T02:19:30;34.08;;;19.83;;
11743;SDS011;5929;51.906;7.674;2023-03-21T02:22:35;38.05;;;20.08;;
11743;SDS011;5929;51.906;7.674;2023-03-21T02:25:40;34.35;;;20.42;;
11743;SDS011;5929;51.906;7.674;2023-03-21T02:28:44;37.15;;;19.35;;
11743;SDS011;5929;51.906;7.674;2023-03-21T02:34:08;38.55;;;21.38;;
11743;SDS011;5929;51.906;7.674;2023-03-21T02:36:54;37.72;;;19.85;;
11743;SDS011;5929;51.906;7.674;2023-03-21T02:39:33;39.60;;;21.13;;
11743;SDS011;5929;51.906;7.674;2023-03-21T02:42:09;37.70;;;20.73;;
11743;SDS011;5929;51.906;7.674;2023-03-21T02:44:43;40.30;;;20.52;;
11743;SDS011;5929;51.906;7.674;2023-03-21T02:47:16;39.53;;;20.25;;
11743;SDS011;5929;51.906;7.674;2023-03-21T02:49:49;39.90;;;21.23;;
11743;SDS011;5929;51.906;7.674;2023-03-21T02:52:21;32.42;;;19.23;;
11743;SDS011;5929;51.906;7.674;2023-03-21T02:54:51;38.05;;;18.75;;
11743;SDS011;5929;51.906;7.674;2023-03-21T02:57:19;41.65;;;20.92;;
11743;SDS011;5929;51.906;7.674;2023-03-21T02:59:47;38.58;;;20.25;;
11743;SDS011;5929;51.906;7.674;2023-03-21T03:02:15;36.13;;;20.63;;
11743;SDS011;5929;51.906;7.674;2023-03-21T03:04:45;32.97;;;18.88;;
11743;SDS011;5929;51.906;7.674;2023-03-21T03:07:16;38.10;;;19.58;;
11743;SDS011;5929;51.906;7.674;2023-03-21T03:09:54;33.80;;;18.83;;
11743;SDS011;5929;51.906;7.674;2023-03-21T03:12:33;33.00;;;17.33;;
11743;SDS011;5929;51.906;7.674;2023-03-21T03:15:12;30.67;;;17.05;;
11743;SDS011;5929;51.906;7.674;2023-03-21T03:17:48;32.33;;;16.65;;
11743;SDS011;5929;51.906;7.674;2023-03-21T03:20:21;38.50;;;18.15;;
11743;SDS011;5929;51.906;7.674;2023-03-21T03:22:56;35.38;;;15.63;;
11743;SDS011;5929;51.906;7.674;2023-03-21T03:25:31;38.75;;;16.75;;
11743;SDS011;5929;51.906;7.674;2023-03-21T03:28:04;35.63;;;16.38;;
11743;SDS011;5929;51.906;7.674;2023-03-21T03:30:35;27.85;;;15.25;;
11743;SDS011;5929;51.906;7.674;2023-03-21T03:33:03;30.30;;;17.00;;
11743;SDS011;5929;51.906;7.674;2023-03-21T03:35:33;28.08;;;15.35;;
11743;SDS011;5929;51.906;7.674;2023-03-21T03:38:02;29.10;;;14.88;;
11743;SDS011;5929;51.906;7.674;2023-03-21T03:40:34;29.10;;;15.32;;
11743;SDS011;5929;51.906;7.674;2023-03-21T03:43:06;33.17;;;15.90;;
11743;SDS011;5929;51.906;7.674;2023-03-21T03:45:38;29.38;;;15.80;;
11743;SDS011;5929;51.906;7.674;2023-03-21T03:48:11;32.28;;;16.08;;
11743;SDS011;5929;51.906;7.674;2023-03-21T03:50:43;32.42;;;17.40;;
11743;SDS011;5929;51.906;7.674;2023-03-21T03:53:18;35.20;;;16.17;;
11743;SDS011;5929;51.906;7.674;2023-03-21T03:55:48;29.27;;;15.45;;
11743;SDS011;5929;51.906;7.674;2023-03-21T03:58:16;31.13;;;15.27;;
11743;SDS011;5929;51.906;7.674;2023-03-21T04:00:47;28.60;;;15.77;;
11743;SDS011;5929;51.906;7.674;2023-03-21T04:03:14;32.28;;;16.08;;
11743;SDS011;5929;51.906;7.674;2023-03-21T04:05:41;27.67;;;14.77;;
11743;SDS011;5929;51.906;7.674;2023-03-21T04:08:12;29.23;;;14.27;;
11743;SDS011;5929;51.906;7.674;2023-03-21T04:10:41;29.98;;;15.35;;
11743;SDS011;5929;51.906;7.674;2023-03-21T04:13:08;26.88;;;13.52;;
11743;SDS011;5929;51.906;7.674;2023-03-21T04:15:35;28.35;;;13.23;;
11743;SDS011;5929;51.906;7.674;2023-03-21T04:18:02;27.70;;;14.55;;
11743;SDS011;5929;51.906;7.674;2023-03-21T04:20:29;28.55;;;13.73;;
11743;SDS011;5929;51.906;7.674;2023-03-21T04:22:56;28.65;;;12.85;;
11743;SDS011;5929;51.906;7.674;2023-03-21T04:25:23;24.33;;;13.48;;
11743;SDS011;5929;51.906;7.674;2023-03-21T04:27:53;28.80;;;13.20;;
11743;SDS011;5929;51.906;7.674;2023-03-21T04:30:20;24.40;;;12.75;;
11743;SDS011;5929;51.906;7.674;2023-03-21T04:32:49;25.40;;;12.95;;
11743;SDS011;5929;51.906;7.674;2023-03-21T04:35:18;24.63;;;12.98;;
11743;SDS011;5929;51.906;7.674;2023-03-21T04:37:45;27.17;;;13.45;;
11743;SDS011;5929;51.906;7.674;2023-03-21T04:40:12;24.52;;;12.35;;
11743;SDS011;5929;51.906;7.674;2023-03-21T04:42:41;26.10;;;12.40;;
11743;SDS011;5929;51.906;7.674;2023-03-21T04:45:10;23.60;;;12.95;;
11743;SDS011;5929;51.906;7.674;2023-03-21T04:47:37;27.13;;;13.25;;
11743;SDS011;5929;51.906;7.674;2023-03-21T04:50:05;26.83;;;14.10;;
11743;SDS011;5929;51.906;7.674;2023-03-21T04:52:32;25.65;;;14.30;;
11743;SDS011;5929;51.906;7.674;2023-03-21T04:55:01;28.00;;;13.52;;
11743;SDS011;5929;51.906;7.674;2023-03-21T04:57:28;28.92;;;15.15;;
11743;SDS011;5929;51.906;7.674;2023-03-21T04:59:55;23.35;;;13.25;;
11743;SDS011;5929;51.906;7.674;2023-03-21T05:02:23;33.38;;;15.40;;
11743;SDS011;5929;51.906;7.674;2023-03-21T05:04:50;29.30;;;15.48;;
11743;SDS011;5929;51.906;7.674;2023-03-21T05:07:17;27.27;;;14.90;;
11743;SDS011;5929;51.906;7.674;2023-03-21T05:09:44;28.77;;;15.88;;
11743;SDS011;5929;51.906;7.674;2023-03-21T05:12:10;26.38;;;14.05;;
11743;SDS011;5929;51.906;7.674;2023-03-21T05:14:37;30.58;;;14.60;;
11743;SDS011;5929;51.906;7.674;2023-03-21T05:17:04;26.30;;;13.82;;
11743;SDS011;5929;51.906;7.674;2023-03-21T05:19:32;26.85;;;13.70;;
11743;SDS011;5929;51.906;7.674;2023-03-21T05:22:05;30.85;;;14.52;;
11743;SDS011;5929;51.906;7.674;2023-03-21T05:24:33;32.05;;;15.30;;
11743;SDS011;5929;51.906;7.674;2023-03-21T05:27:03;32.40;;;15.65;;
11743;SDS011;5929;51.906;7.674;2023-03-21T05:29:31;27.08;;;15.30;;
11743;SDS011;5929;51.906;7.674;2023-03-21T05:31:59;31.50;;;15.23;;
11743;SDS011;5929;51.906;7.674;2023-03-21T05:34:26;29.02;;;15.30;;
11743;SDS011;5929;51.906;7.674;2023-03-21T05:36:57;23.50;;;14.57;;
11743;SDS011;5929;51.906;7.674;2023-03-21T05:39:24;24.77;;;14.10;;
11743;SDS011;5929;51.906;7.674;2023-03-21T05:41:51;26.90;;;13.75;;
11743;SDS011;5929;51.906;7.674;2023-03-21T05:44:18;29.17;;;14.88;;
11743;SDS011;5929;51.906;7.674;2023-03-21T05:46:44;24.83;;;13.75;;
11743;SDS011;5929;51.906;7.674;2023-03-21T05:49:11;26.25;;;13.32;;
11743;SDS011;5929;51.906;7.674;2023-03-21T05:51:38;27.90;;;15.05;;
11743;SDS011;5929;51.906;7.674;2023-03-21T05:54:06;29.38;;;14.57;;
11743;SDS011;5929;51.906;7.674;2023-03-21T05:56:33;28.08;;;14.73;;
11743;SDS011;5929;51.906;7.674;2023-03-21T05:59:00;28.58;;;14.82;;
11743;SDS011;5929;51.906;7.674;2023-03-21T06:01:27;27.52;;;14.90;;
11743;SDS011;5929;51.906;7.674;2023-03-21T06:03:53;28.25;;;14.00;;
11743;SDS011;5929;51.906;7.674;2023-03-21T06:06:20;28.30;;;13.65;;
11743;SDS011;5929;51.906;7.674;2023-03-21T06:08:47;28.13;;;13.27;;
11743;SDS011;5929;51.906;7.674;2023-03-21T06:11:22;26.65;;;14.43;;
11743;SDS011;5929;51.906;7.674;2023-03-21T06:13:51;28.67;;;14.65;;
11743;SDS011;5929;51.906;7.674;2023-03-21T06:16:17;28.98;;;13.68;;
11743;SDS011;5929;51.906;7.674;2023-03-21T06:18:44;27.70;;;13.02;;
11743;SDS011;5929;51.906;7.674;2023-03-21T06:21:11;22.73;;;12.60;;
11743;SDS011;5929;51.906;7.674;2023-03-21T06:23:38;23.98;;;13.85;;
11743;SDS011;5929;51.906;7.674;2023-03-21T06:26:05;23.17;;;14.00;;
11743;SDS011;5929;51.906;7.674;2023-03-21T06:28:34;30.15;;;14.55;;
11743;SDS011;5929;51.906;7.674;2023-03-21T06:31:01;32.08;;;15.63;;
11743;SDS011;5929;51.906;7.674;2023-03-21T06:33:27;30.35;;;15.18;;
11743;SDS011;5929;51.906;7.674;2023-03-21T06:35:55;27.65;;;14.10;;
11743;SDS011;5929;51.906;7.674;2023-03-21T06:38:23;27.88;;;15.18;;
11743;SDS011;5929;51.906;7.674;2023-03-21T06:40:51;32.30;;;15.40;;
11743;SDS011;5929;51.906;7.674;2023-03-21T06:43:18;32.17;;;15.40;;
11743;SDS011;5929;51.906;7.674;2023-03-21T06:45:46;30.95;;;14.85;;
11743;SDS011;5929;51.906;7.674;2023-03-21T06:48:13;30.98;;;15.00;;
11743;SDS011;5929;51.906;7.674;2023-03-21T06:50:40;33.97;;;16.13;;
11743;SDS011;5929;51.906;7.674;2023-03-21T06:53:06;27.85;;;14.93;;
11743;SDS011;5929;51.906;7.674;2023-03-21T06:55:33;32.10;;;15.15;;
11743;SDS011;5929;51.906;7.674;2023-03-21T06:58:00;28.85;;;15.57;;
11743;SDS011;5929;51.906;7.674;2023-03-21T07:00:27;26.67;;;14.95;;
11743;SDS011;5929;51.906;7.674;2023-03-21T07:02:55;23.85;;;15.30;;
11743;SDS011;5929;51.906;7.674;2023-03-21T07:05:25;30.58;;;16.35;;
11743;SDS011;5929;51.906;7.674;2023-03-21T07:07:52;30.05;;;15.93;;
11743;SDS011;5929;51.906;7.674;2023-03-21T07:10:22;29.55;;;15.82;;
11743;SDS011;5929;51.906;7.674;2023-03-21T07:12:48;32.67;;;16.85;;
11743;SDS011;5929;51.906;7.674;2023-03-21T07:15:15;34.90;;;16.77;;
11743;SDS011;5929;51.906;7.674;2023-03-21T07:17:42;33.63;;;16.35;;
11743;SDS011;5929;51.906;7.674;2023-03-21T07:20:11;29.88;;;16.38;;
11743;SDS011;5929;51.906;7.674;2023-03-21T07:22:38;35.97;;;16.88;;
11743;SDS011;5929;51.906;7.674;2023-03-21T07:25:05;32.55;;;17.05;;
11743;SDS011;5929;51.906;7.674;2023-03-21T07:27:33;32.70;;;16.95;;
11743;SDS011;5929;51.906;7.674;2023-03-21T07:30:00;33.45;;;17.20;;
11743;SDS011;5929;51.906;7.674;2023-03-21T07:32:30;34.53;;;16.67;;
11743;SDS011;5929;51.906;7.674;2023-03-21T07:34:58;43.67;;;17.45;;
11743;SDS011;5929;51.906;7.674;2023-03-21T07:37:26;33.92;;;16.52;;
11743;SDS011;5929;51.906;7.674;2023-03-21T07:39:53;37.50;;;17.05;;
11743;SDS011;5929;51.906;7.674;2023-03-21T07:42:22;33.08;;;16.35;;
11743;SDS011;5929;51.906;7.674;2023-03-21T07:44:49;34.58;;;16.45;;
11743;SDS011;5929;51.906;7.674;2023-03-21T07:47:19;34.13;;;18.50;;
11743;SDS011;5929;51.906;7.674;2023-03-21T07:49:45;41.10;;;17.35;;
11743;SDS011;5929;51.906;7.674;2023-03-21T07:52:12;31.30;;;16.80;;
11743;SDS011;5929;51.906;7.674;2023-03-21T07:54:40;37.80;;;18.88;;
11743;SDS011;5929;51.906;7.674;2023-03-21T07:57:07;36.20;;;19.45;;
11743;SDS011;5929;51.906;7.674;2023-03-21T07:59:34;46.88;;;19.30;;
11743;SDS011;5929;51.906;7.674;2023-03-21T08:02:01;45.70;;;19.08;;
11743;SDS011;5929;51.906;7.674;2023-03-21T08:04:30;48.55;;;20.00;;
11743;SDS011;5929;51.906;7.674;2023-03-21T08:06:58;44.40;;;20.83;;
11743;SDS011;5929;51.906;7.674;2023-03-21T08:09:25;43.83;;;22.83;;
11743;SDS011;5929;51.906;7.674;2023-03-21T08:11:53;45.90;;;21.77;;
11743;SDS011;5929;51.906;7.674;2023-03-21T08:14:20;48.03;;;22.20;;
11743;SDS011;5929;51.906;7.674;2023-03-21T08:16:47;41.65;;;21.40;;
11743;SDS011;5929;51.906;7.674;2023-03-21T08:19:14;45.22;;;21.38;;
11743;SDS011;5929;51.906;7.674;2023-03-21T08:21:42;42.90;;;21.80;;
11743;SDS011;5929;51.906;7.674;2023-03-21T08:24:09;42.58;;;21.52;;
11743;SDS011;5929;51.906;7.674;2023-03-21T08:26:36;52.40;;;21.50;;
11743;SDS011;5929;51.906;7.674;2023-03-21T08:29:04;45.47;;;20.95;;
11743;SDS011;5929;51.906;7.674;2023-03-21T08:31:31;48.35;;;21.92;;
11743;SDS011;5929;51.906;7.674;2023-03-21T08:33:58;42.45;;;21.05;;
11743;SDS011;5929;51.906;7.674;2023-03-21T08:36:25;50.17;;;21.00;;
11743;SDS011;5929;51.906;7.674;2023-03-21T08:38:52;43.10;;;20.63;;
11743;SDS011;5929;51.906;7.674;2023-03-21T08:41:21;50.22;;;21.75;;
11743;SDS011;5929;51.906;7.674;2023-03-21T08:43:50;51.88;;;21.25;;
11743;SDS011;5929;51.906;7.674;2023-03-21T08:46:18;43.03;;;20.80;;
11743;SDS011;5929;51.906;7.674;2023-03-21T08:48:47;39.65;;;20.52;;
11743;SDS011;5929;51.906;7.674;2023-03-21T08:51:14;53.10;;;21.90;;
11743;SDS011;5929;51.906;7.674;2023-03-21T08:53:43;39.35;;;18.83;;
11743;SDS011;5929;51.906;7.674;2023-03-21T08:56:10;41.33;;;18.02;;
11743;SDS011;5929;51.906;7.674;2023-03-21T08:58:37;47.30;;;18.65;;
11743;SDS011;5929;51.906;7.674;2023-03-21T09:01:04;45.80;;;19.13;;
11743;SDS011;5929;51.906;7.674;2023-03-21T09:03:34;38.28;;;18.25;;
11743;SDS011;5929;51.906;7.674;2023-03-21T09:06:02;40.92;;;18.88;;
11743;SDS011;5929;51.906;7.674;2023-03-21T09:08:29;49.20;;;19.45;;
11743;SDS011;5929;51.906;7.674;2023-03-21T09:10:56;33.17;;;18.38;;
11743;SDS011;5929;51.906;7.674;2023-03-21T09:13:23;35.08;;;19.20;;
11743;SDS011;5929;51.906;7.674;2023-03-21T09:15:50;38.03;;;18.55;;
11743;SDS011;5929;51.906;7.674;2023-03-21T09:18:18;46.50;;;20.38;;
11743;SDS011;5929;51.906;7.674;2023-03-21T09:20:48;44.70;;;19.30;;
11743;SDS011;5929;51.906;7.674;2023-03-21T09:23:18;46.88;;;20.25;;
11743;SDS011;5929;51.906;7.674;2023-03-21T09:25:45;38.65;;;18.77;;
11743;SDS011;5929;51.906;7.674;2023-03-21T09:28:12;38.45;;;20.63;;
11743;SDS011;5929;51.906;7.674;2023-03-21T09:30:40;44.63;;;20.42;;
11743;SDS011;5929;51.906;7.674;2023-03-21T09:33:08;44.08;;;19.98;;
11743;SDS011;5929;51.906;7.674;2023-03-21T09:35:43;40.17;;;20.48;;
11743;SDS011;5929;51.906;7.674;2023-03-21T09:38:13;41.53;;;20.85;;
11743;SDS011;5929;51.906;7.674;2023-03-21T09:40:47;38.25;;;20.65;;
11743;SDS011;5929;51.906;7.674;2023-03-21T09:43:25;36.28;;;19.40;;
11743;SDS011;5929;51.906;7.674;2023-03-21T09:46:06;36.72;;;19.83;;
11743;SDS011;5929;51.906;7.674;2023-03-21T09:48:43;42.97;;;21.83;;
11743;SDS011;5929;51.906;7.674;2023-03-21T09:51:16;46.92;;;20.73;;
11743;SDS011;5929;51.906;7.674;2023-03-21T09:53:47;42.03;;;19.67;;
11743;SDS011;5929;51.906;7.674;2023-03-21T09:56:15;37.92;;;18.63;;
11743;SDS011;5929;51.906;7.674;2023-03-21T09:58:43;41.05;;;17.92;;
11743;SDS011;5929;51.906;7.674;2023-03-21T10:01:18;37.45;;;18.58;;
11743;SDS011;5929;51.906;7.674;2023-03-21T10:03:51;35.72;;;18.45;;
11743;SDS011;5929;51.906;7.674;2023-03-21T10:06:19;38.08;;;17.95;;
11743;SDS011;5929;51.906;7.674;2023-03-21T10:08:52;33.55;;;16.73;;
11743;SDS011;5929;51.906;7.674;2023-03-21T10:11:25;31.63;;;16.58;;
11743;SDS011;5929;51.906;7.674;2023-03-21T10:13:57;32.85;;;16.73;;
11743;SDS011;5929;51.906;7.674;2023-03-21T10:16:29;34.05;;;15.30;;
11743;SDS011;5929;51.906;7.674;2023-03-21T10:18:58;34.20;;;15.82;;
11743;SDS011;5929;51.906;7.674;2023-03-21T10:21:27;33.17;;;15.45;;
11743;SDS011;5929;51.906;7.674;2023-03-21T10:23:58;30.05;;;15.77;;
11743;SDS011;5929;51.906;7.674;2023-03-21T10:26:26;34.58;;;15.30;;
11743;SDS011;5929;51.906;7.674;2023-03-21T10:28:55;35.83;;;15.85;;
11743;SDS011;5929;51.906;7.674;2023-03-21T10:31:24;31.92;;;15.18;;
11743;SDS011;5929;51.906;7.674;2023-03-21T10:33:55;40.08;;;16.02;;
11743;SDS011;5929;51.906;7.674;2023-03-21T10:36:26;39.00;;;15.90;;
11743;SDS011;5929;51.906;7.674;2023-03-21T10:38:55;38.13;;;16.85;;
11743;SDS011;5929;51.906;7.674;2023-03-21T10:41:26;45.28;;;16.40;;
11743;SDS011;5929;51.906;7.674;2023-03-21T10:44:03;38.08;;;17.30;;
11743;SDS011;5929;51.906;7.674;2023-03-21T10:46:32;38.22;;;16.95;;
11743;SDS011;5929;51.906;7.674;2023-03-21T10:48:59;32.05;;;16.42;;
11743;SDS011;5929;51.906;7.674;2023-03-21T10:51:27;34.40;;;16.13;;
11743;SDS011;5929;51.906;7.674;2023-03-21T10:53:59;37.70;;;16.63;;
11743;SDS011;5929;51.906;7.674;2023-03-21T10:56:31;26.42;;;15.23;;
11743;SDS011;5929;51.906;7.674;2023-03-21T10:59:03;31.85;;;15.50;;
11743;SDS011;5929;51.906;7.674;2023-03-21T11:01:34;26.60;;;15.32;;
11743;SDS011;5929;51.906;7.674;2023-03-21T11:04:05;34.95;;;16.58;;
11743;SDS011;5929;51.906;7.674;2023-03-21T11:06:35;34.17;;;16.63;;
11743;SDS011;5929;51.906;7.674;2023-03-21T11:09:07;40.53;;;18.13;;
11743;SDS011;5929;51.906;7.674;2023-03-21T11:11:39;31.52;;;17.67;;
11743;SDS011;5929;51.906;7.674;2023-03-21T11:14:23;33.08;;;18.67;;
11743;SDS011;5929;51.906;7.674;2023-03-21T11:16:51;36.30;;;18.35;;
11743;SDS011;5929;51.906;7.674;2023-03-21T11:19:19;38.97;;;19.60;;
11743;SDS011;5929;51.906;7.674;2023-03-21T11:21:57;31.92;;;18.25;;
11743;SDS011;5929;51.906;7.674;2023-03-21T11:24:30;34.65;;;19.80;;
11743;SDS011;5929;51.906;7.674;2023-03-21T11:26:58;36.22;;;19.05;;
11743;SDS011;5929;51.906;7.674;2023-03-21T11:29:29;34.05;;;20.00;;
11743;SDS011;5929;51.906;7.674;2023-03-21T11:31:59;34.17;;;18.85;;
11743;SDS011;5929;51.906;7.674;2023-03-21T11:34:27;34.53;;;20.58;;
11743;SDS011;5929;51.906;7.674;2023-03-21T11:36:59;34.47;;;18.60;;
11743;SDS011;5929;51.906;7.674;2023-03-21T11:39:33;30.38;;;19.40;;
11743;SDS011;5929;51.906;7.674;2023-03-21T11:42:03;31.17;;;18.13;;
11743;SDS011;5929;51.906;7.674;2023-03-21T11:44:33;36.72;;;20.23;;
11743;SDS011;5929;51.906;7.674;2023-03-21T11:47:07;30.42;;;17.55;;
11743;SDS011;5929;51.906;7.674;2023-03-21T11:49:36;30.65;;;17.00;;
11743;SDS011;5929;51.906;7.674;2023-03-21T11:52:10;36.50;;;18.55;;
11743;SDS011;5929;51.906;7.674;2023-03-21T11:54:51;34.72;;;18.00;;
11743;SDS011;5929;51.906;7.674;2023-03-21T11:57:31;37.25;;;18.30;;
11743;SDS011;5929;51.906;7.674;2023-03-21T12:00:08;35.15;;;18.95;;
11743;SDS011;5929;51.906;7.674;2023-03-21T12:02:53;35.42;;;19.63;;
11743;SDS011;5929;51.906;7.674;2023-03-21T12:05:37;31.52;;;18.10;;
11743;SDS011;5929;51.906;7.674;2023-03-21T12:08:11;29.98;;;18.58;;
11743;SDS011;5929;51.906;7.674;2023-03-21T12:10:50;37.30;;;18.38;;
11743;SDS011;5929;51.906;7.674;2023-03-21T12:13:26;26.25;;;16.88;;
11743;SDS011;5929;51.906;7.674;2023-03-21T12:16:15;31.33;;;16.50;;
11743;SDS011;5929;51.906;7.674;2023-03-21T12:19:07;31.90;;;17.42;;
11743;SDS011;5929;51.906;7.674;2023-03-21T12:21:57;31.95;;;18.33;;
11743;SDS011;5929;51.906;7.674;2023-03-21T12:24:30;31.38;;;17.98;;
11743;SDS011;5929;51.906;7.674;2023-03-21T12:27:03;36.40;;;18.38;;
11743;SDS011;5929;51.906;7.674;2023-03-21T12:29:40;33.38;;;19.35;;
11743;SDS011;5929;51.906;7.674;2023-03-21T12:32:28;32.90;;;16.58;;
11743;SDS011;5929;51.906;7.674;2023-03-21T12:37:59;32.75;;;16.05;;
11743;SDS011;5929;51.906;7.674;2023-03-21T12:40:48;26.73;;;14.88;;
11743;SDS011;5929;51.906;7.674;2023-03-21T12:43:38;22.90;;;12.35;;
11743;SDS011;5929;51.906;7.674;2023-03-21T12:46:12;20.85;;;11.00;;
11743;SDS011;5929;51.906;7.674;2023-03-21T12:48:44;24.58;;;10.57;;
11743;SDS011;5929;51.906;7.674;2023-03-21T12:51:17;24.77;;;9.23;;
11743;SDS011;5929;51.906;7.674;2023-03-21T12:53:50;21.02;;;10.40;;
11743;SDS011;5929;51.906;7.674;2023-03-21T12:56:22;15.70;;;8.55;;
11743;SDS011;5929;51.906;7.674;2023-03-21T12:58:57;19.27;;;8.95;;
11743;SDS011;5929;51.906;7.674;2023-03-21T13:01:28;17.67;;;9.85;;
11743;SDS011;5929;51.906;7.674;2023-03-21T13:04:05;18.65;;;8.60;;
11743;SDS011;5929;51.906;7.674;2023-03-21T13:06:40;18.42;;;9.13;;
11743;SDS011;5929;51.906;7.674;2023-03-21T13:09:10;15.80;;;7.53;;
11743;SDS011;5929;51.906;7.674;2023-03-21T13:11:41;18.23;;;8.90;;
11743;SDS011;5929;51.906;7.674;2023-03-21T13:14:12;16.98;;;8.15;;
11743;SDS011;5929;51.906;7.674;2023-03-21T13:16:46;17.17;;;8.45;;
11743;SDS011;5929;51.906;7.674;2023-03-21T13:19:18;16.75;;;8.15;;
11743;SDS011;5929;51.906;7.674;2023-03-21T13:21:55;16.58;;;7.32;;
11743;SDS011;5929;51.906;7.674;2023-03-21T13:24:31;13.15;;;7.22;;
11743;SDS011;5929;51.906;7.674;2023-03-21T13:27:03;17.00;;;7.68;;
11743;SDS011;5929;51.906;7.674;2023-03-21T13:29:34;17.58;;;7.32;;
11743;SDS011;5929;51.906;7.674;2023-03-21T13:32:14;18.42;;;7.80;;
11743;SDS011;5929;51.906;7.674;2023-03-21T13:34:48;18.23;;;7.20;;
11743;SDS011;5929;51.906;7.674;2023-03-21T13:37:21;16.63;;;7.05;;
11743;SDS011;5929;51.906;7.674;2023-03-21T13:39:50;13.85;;;7.30;;
11743;SDS011;5929;51.906;7.674;2023-03-21T13:42:20;11.65;;;6.25;;
11743;SDS011;5929;51.906;7.674;2023-03-21T13:44:51;12.57;;;6.32;;
11743;SDS011;5929;51.906;7.674;2023-03-21T13:47:29;12.55;;;5.72;;
11743;SDS011;5929;51.906;7.674;2023-03-21T13:53:16;12.82;;;7.88;;
11743;SDS011;5929;51.906;7.674;2023-03-21T13:55:59;16.13;;;7.70;;
11743;SDS011;5929;51.906;7.674;2023-03-21T13:58:35;11.25;;;5.50;;
11743;SDS011;5929;51.906;7.674;2023-03-21T14:01:13;11.20;;;5.25;;
11743;SDS011;5929;51.906;7.674;2023-03-21T14:03:55;10.45;;;5.13;;
11743;SDS011;5929;51.906;7.674;2023-03-21T14:06:24;8.98;;;4.35;;
11743;SDS011;5929;51.906;7.674;2023-03-21T14:08:56;12.77;;;4.80;;
11743;SDS011;5929;51.906;7.674;2023-03-21T14:11:23;16.00;;;5.43;;
11743;SDS011;5929;51.906;7.674;2023-03-21T14:13:54;10.98;;;4.70;;
11743;SDS011;5929;51.906;7.674;2023-03-21T14:16:24;12.02;;;5.45;;
11743;SDS011;5929;51.906;7.674;2023-03-21T14:18:54;9.98;;;5.10;;
11743;SDS011;5929;51.906;7.674;2023-03-21T14:21:23;10.23;;;4.82;;
11743;SDS011;5929;51.906;7.674;2023-03-21T14:23:55;9.85;;;3.80;;
11743;SDS011;5929;51.906;7.674;2023-03-21T14:26:28;9.65;;;3.75;;
11743;SDS011;5929;51.906;7.674;2023-03-21T14:28:57;7.72;;;3.80;;
11743;SDS011;5929;51.906;7.674;2023-03-21T14:31:26;8.18;;;4.15;;
11743;SDS011;5929;51.906;7.674;2023-03-21T14:33:54;7.32;;;3.47;;
11743;SDS011;5929;51.906;7.674;2023-03-21T14:36:24;8.63;;;3.58;;
11743;SDS011;5929;51.906;7.674;2023-03-21T14:38:54;7.75;;;4.80;;
11743;SDS011;5929;51.906;7.674;2023-03-21T14:41:23;7.15;;;3.13;;
11743;SDS011;5929;51.906;7.674;2023-03-21T14:44:02;6.72;;;2.80;;
11743;SDS011;5929;51.906;7.674;2023-03-21T14:46:37;8.57;;;3.20;;
11743;SDS011;5929;51.906;7.674;2023-03-21T14:49:09;7.50;;;3.92;;
11743;SDS011;5929;51.906;7.674;2023-03-21T14:51:43;7.50;;;2.70;;
11743;SDS011;5929;51.906;7.674;2023-03-21T14:54:13;7.30;;;3.53;;
11743;SDS011;5929;51.906;7.674;2023-03-21T14:56:43;9.90;;;3.30;;
11743;SDS011;5929;51.906;7.674;2023-03-21T14:59:13;8.13;;;3.50;;
11743;SDS011;5929;51.906;7.674;2023-03-21T15:01:43;8.98;;;3.58;;
11743;SDS011;5929;51.906;7.674;2023-03-21T15:04:12;7.60;;;3.67;;
11743;SDS011;5929;51.906;7.674;2023-03-21T15:06:47;8.60;;;4.63;;